Time;durP1;ratioP1;P1;durP2;ratioP2;P2;SDS_P1;SDS_P2;PMS_P1;PMS_P2;Temp;Humidity;BMP_temperature;BMP_pressure;BME280_temperature;BME280_humidity;BME280_pressure;Samples;Min_cycle;Max_cycle;Signal;HPM_P1;HPM_P2
2022/08/10 00:00:27;;;;;;;8.55;4.53;;;;;;;14.61;93.80;96218.16;5060634;28;20051;-77
2022/08/10 00:03:06;;;;;;;7.07;4.57;;;;;;;14.53;94.94;96216.09;5053492;28;20621;-76
2022/08/10 00:05:32;;;;;;;7.55;4.50;;;;;;;14.51;94.81;96218.19;5051975;28;20561;-77
2022/08/10 00:07:58;;;;;;;6.55;4.22;;;;;;;14.49;95.97;96215.06;5054644;28;20064;-77
2022/08/10 00:10:24;;;;;;;6.72;4.68;;;;;;;14.40;96.68;96214.06;5051833;28;20491;-77
2022/08/10 00:12:49;;;;;;;5.53;4.20;;;;;;;14.37;96.34;96218.84;5045748;28;20044;-78
2022/08/10 00:15:17;;;;;;;6.20;4.32;;;;;;;14.48;95.69;96219.56;5057825;28;20051;-78
2022/08/10 00:17:42;;;;;;;7.82;4.30;;;;;;;14.43;95.85;96216.16;5056382;28;20093;-78
2022/08/10 00:20:09;;;;;;;6.50;4.55;;;;;;;14.33;97.00;96222.31;5059487;28;20442;-77
2022/08/10 00:22:34;;;;;;;6.90;4.43;;;;;;;14.25;97.80;96225.53;5059850;28;20401;-78
2022/08/10 00:25:00;;;;;;;6.75;4.30;;;;;;;14.11;99.20;96225.38;5053325;28;20128;-77
2022/08/10 00:27:27;;;;;;;10.43;4.25;;;;;;;14.11;99.51;96226.16;5055317;28;20077;-77
2022/08/10 00:29:53;;;;;;;6.25;4.38;;;;;;;13.98;100.00;96222.28;5051148;28;20060;-78
2022/08/10 00:32:18;;;;;;;8.25;4.40;;;;;;;13.97;100.00;96225.19;5052549;28;20063;-77
2022/08/10 00:34:45;;;;;;;6.57;4.47;;;;;;;13.95;100.00;96227.31;5051631;28;20465;-76
2022/08/10 00:37:14;;;;;;;9.63;4.90;;;;;;;14.02;100.00;96228.59;5049708;28;20449;-76
2022/08/10 00:39:40;;;;;;;10.77;5.20;;;;;;;14.07;99.57;96224.34;5050824;28;20064;-76
2022/08/10 00:42:07;;;;;;;6.57;4.50;;;;;;;13.98;100.00;96224.91;5050696;28;20083;-77
2022/08/10 00:44:34;;;;;;;6.25;4.55;;;;;;;13.98;100.00;96227.56;5054552;28;20051;-77
2022/08/10 00:47:00;;;;;;;8.35;4.53;;;;;;;13.98;100.00;96221.50;5051930;28;20123;-76
2022/08/10 00:49:27;;;;;;;7.72;4.57;;;;;;;13.84;100.00;96232.66;5057247;28;20417;-76
2022/08/10 00:51:53;;;;;;;8.07;4.60;;;;;;;13.78;100.00;96219.75;5045405;28;20542;-76
2022/08/10 00:54:19;;;;;;;10.32;4.72;;;;;;;13.80;100.00;96225.53;5054959;28;20064;-77
2022/08/10 00:56:44;;;;;;;8.02;5.00;;;;;;;13.73;100.00;96219.75;5051985;28;20534;-78
2022/08/10 00:59:10;;;;;;;7.35;5.00;;;;;;;13.68;100.00;96217.91;5051034;28;20499;-78
2022/08/10 01:01:35;;;;;;;7.25;4.78;;;;;;;13.73;100.00;96219.75;5048948;28;20132;-76
2022/08/10 01:04:03;;;;;;;8.13;5.20;;;;;;;13.71;100.00;96221.88;5049058;28;20073;-78
2022/08/10 01:06:50;;;;;;;9.13;5.10;;;;;;;13.62;100.00;96219.78;5055252;28;20426;-78
2022/08/10 01:09:34;;;;;;;8.07;5.00;;;;;;;13.63;100.00;96216.09;5047069;28;20499;-78
2022/08/10 01:12:08;;;;;;;9.43;5.20;;;;;;;13.54;100.00;96212.41;5047262;28;20060;-78
2022/08/10 01:14:51;;;;;;;7.68;4.80;;;;;;;13.51;100.00;96212.97;5039024;28;20095;-77
2022/08/10 01:17:22;;;;;;;7.25;5.13;;;;;;;13.49;100.00;96210.59;5053192;28;20093;-77
2022/08/10 01:20:12;;;;;;;8.00;4.82;;;;;;;13.56;100.00;96215.59;5050466;28;20049;-77
2022/08/10 01:23:15;;;;;;;6.97;5.05;;;;;;;13.59;100.00;96224.81;5054840;28;20748;-77
2022/08/10 01:26:08;;;;;;;10.00;5.05;;;;;;;13.48;100.00;96218.78;5042103;28;20392;-78
2022/08/10 01:28:55;;;;;;;6.93;4.65;;;;;;;13.39;100.00;96215.09;5049773;28;20037;-78
2022/08/10 01:31:26;;;;;;;7.35;4.93;;;;;;;13.40;100.00;96216.69;5048311;28;20047;-78
2022/08/10 01:34:01;;;;;;;10.48;4.82;;;;;;;13.34;100.00;96214.06;5049884;28;20112;-78
2022/08/10 01:36:33;;;;;;;8.88;5.00;;;;;;;13.34;100.00;96210.59;5051386;28;20037;-77
2022/08/10 01:39:02;;;;;;;10.30;5.55;;;;;;;13.20;100.00;96212.22;5057634;28;20068;-77
2022/08/10 01:41:39;;;;;;;7.22;5.05;;;;;;;13.22;100.00;96204.84;5048529;28;20402;-77
2022/08/10 01:44:11;;;;;;;12.23;6.05;;;;;;;13.27;100.00;96207.47;5050161;28;20372;-77
2022/08/10 01:46:39;;;;;;;8.25;5.32;;;;;;;13.17;100.00;96208.28;5050897;28;20043;-77
2022/08/10 01:49:11;;;;;;;14.07;5.28;;;;;;;13.19;100.00;96211.47;5048570;28;20044;-77
2022/08/10 01:51:42;;;;;;;9.63;4.78;;;;;;;13.15;100.00;96210.41;5046750;28;20131;-77
2022/08/10 01:54:11;;;;;;;6.68;4.65;;;;;;;13.18;100.00;96215.16;5049665;28;20052;-77
2022/08/10 01:56:47;;;;;;;9.20;5.32;;;;;;;13.10;100.00;96202.47;5050819;28;20041;-77
2022/08/10 01:59:20;;;;;;;10.48;4.82;;;;;;;12.99;100.00;96207.78;5053479;28;20427;-77
2022/08/10 02:01:56;;;;;;;6.70;5.00;;;;;;;12.98;100.00;96210.69;5054017;28;20033;-77
2022/08/10 02:04:24;;;;;;;7.43;5.22;;;;;;;12.91;100.00;96210.97;5057236;28;20041;-75
2022/08/10 02:06:53;;;;;;;8.35;5.10;;;;;;;12.89;100.00;96218.38;5054003;28;20048;-75
2022/08/10 02:09:34;;;;;;;9.68;5.25;;;;;;;12.88;100.00;96208.84;5053437;28;20048;-76
2022/08/10 02:12:06;;;;;;;13.70;5.43;;;;;;;12.93;100.00;96208.88;5049286;28;20048;-76
2022/08/10 02:14:35;;;;;;;10.77;4.97;;;;;;;12.86;100.00;96213.63;5049934;28;20395;-76
2022/08/10 02:17:05;;;;;;;7.85;5.00;;;;;;;12.86;100.00;96208.34;5049845;28;20048;-76
2022/08/10 02:19:33;;;;;;;9.45;5.13;;;;;;;12.94;100.00;96199.88;5049192;28;20045;-76
2022/08/10 02:22:00;;;;;;;9.35;5.25;;;;;;;12.82;100.00;96202.00;5050219;28;20075;-77
2022/08/10 02:24:26;;;;;;;6.47;4.82;;;;;;;12.85;100.00;96196.19;5044151;28;20044;-76
2022/08/10 02:26:53;;;;;;;7.15;5.22;;;;;;;12.86;100.00;96200.41;5049510;28;20427;-76
2022/08/10 02:29:20;;;;;;;10.55;5.25;;;;;;;12.81;100.00;96200.41;5052440;28;20079;-76
2022/08/10 02:31:45;;;;;;;9.77;5.47;;;;;;;12.75;100.00;96206.78;5047223;28;20048;-77
2022/08/10 02:34:12;;;;;;;6.43;5.05;;;;;;;12.75;100.00;96202.28;5051117;28;20418;-76
2022/08/10 02:36:44;;;;;;;7.55;5.28;;;;;;;12.74;100.00;96202.53;5049526;28;20045;-76
2022/08/10 02:39:11;;;;;;;6.03;4.63;;;;;;;12.76;100.00;96195.16;5049319;28;20052;-76
2022/08/10 02:42:01;;;;;;;9.07;5.85;;;;;;;12.68;100.00;96190.41;5047707;28;20106;-76
2022/08/10 02:44:47;;;;;;;7.03;5.13;;;;;;;12.71;100.00;96189.88;5048929;28;20486;-76
2022/08/10 02:47:32;;;;;;;8.35;5.53;;;;;;;12.58;100.00;96191.97;5041868;28;20505;-76
2022/08/10 02:50:13;;;;;;;8.43;5.25;;;;;;;12.56;100.00;96193.31;5049425;28;20044;-76
2022/08/10 02:52:49;;;;;;;8.73;5.22;;;;;;;12.54;100.00;96185.66;5045948;28;20423;-76
2022/08/10 02:55:26;;;;;;;7.07;5.10;;;;;;;12.61;100.00;96196.75;5047412;28;20052;-75
2022/08/10 02:57:54;;;;;;;11.77;5.45;;;;;;;12.55;100.00;96192.50;5050522;28;20119;-75
2022/08/10 03:00:22;;;;;;;9.18;4.93;;;;;;;12.47;100.00;96190.41;5047984;28;20617;-75
2022/08/10 03:02:50;;;;;;;11.60;5.10;;;;;;;12.48;100.00;96192.00;5048936;28;20049;-76
2022/08/10 03:05:18;;;;;;;8.02;5.47;;;;;;;12.48;100.00;96187.50;5054908;28;20048;-76
2022/08/10 03:07:59;;;;;;;9.32;4.78;;;;;;;12.57;100.00;96189.59;5049929;28;20059;-76
2022/08/10 03:10:31;;;;;;;9.80;5.07;;;;;;;12.59;100.00;96183.00;5047062;28;20044;-75
2022/08/10 03:13:00;;;;;;;6.22;4.45;;;;;;;12.64;100.00;96180.38;5055168;28;20072;-75
2022/08/10 03:15:28;;;;;;;8.05;5.32;;;;;;;12.64;100.00;96180.38;5048780;28;20037;-75
2022/08/10 03:17:56;;;;;;;8.05;5.00;;;;;;;12.52;100.00;96182.47;5048886;28;20040;-76
2022/08/10 03:20:22;;;;;;;5.63;4.32;;;;;;;12.48;100.00;96176.97;5044569;28;20059;-76
2022/08/10 03:22:49;;;;;;;7.63;5.22;;;;;;;12.51;100.00;96180.88;5052510;28;20103;-76
2022/08/10 03:25:18;;;;;;;7.80;4.50;;;;;;;12.46;100.00;96178.28;5052992;28;20514;-76
2022/08/10 03:27:45;;;;;;;7.25;4.93;;;;;;;12.40;100.00;96184.63;5051525;28;20044;-76
2022/08/10 03:30:11;;;;;;;9.05;4.68;;;;;;;12.30;100.00;96170.34;5045975;28;20155;-76
2022/08/10 03:32:38;;;;;;;6.45;4.45;;;;;;;12.33;100.00;96178.81;5056692;28;20543;-76
2022/08/10 03:35:06;;;;;;;6.20;4.63;;;;;;;12.22;100.00;96170.84;5052624;28;20048;-76
2022/08/10 03:37:32;;;;;;;5.70;4.32;;;;;;;12.11;100.00;96172.72;5056800;28;20040;-75
2022/08/10 03:39:58;;;;;;;6.88;5.00;;;;;;;12.10;100.00;96175.63;5052528;28;20052;-76
2022/08/10 03:42:26;;;;;;;6.07;4.53;;;;;;;12.04;100.00;96166.09;5044817;28;20109;-75
2022/08/10 03:44:52;;;;;;;6.07;4.50;;;;;;;11.98;100.00;96167.16;5052360;28;20086;-76
2022/08/10 03:47:20;;;;;;;6.68;4.10;;;;;;;11.89;100.00;96172.91;5055089;28;20106;-76
2022/08/10 03:49:47;;;;;;;7.60;4.47;;;;;;;11.87;100.00;96177.66;5052223;28;20037;-76
2022/08/10 03:52:14;;;;;;;5.60;4.30;;;;;;;11.73;100.00;96172.06;5048006;28;20041;-76
2022/08/10 03:54:40;;;;;;;5.82;4.43;;;;;;;11.79;100.00;96172.88;5051072;28;20029;-76
2022/08/10 03:57:06;;;;;;;10.18;4.43;;;;;;;11.83;100.00;96173.94;5052670;28;20070;-76
2022/08/10 03:59:32;;;;;;;6.00;4.22;;;;;;;11.73;100.00;96171.28;5055316;28;20520;-75
2022/08/10 04:01:59;;;;;;;7.35;4.20;;;;;;;11.67;100.00;96178.41;5052733;28;20115;-75
2022/08/10 04:04:26;;;;;;;10.80;4.55;;;;;;;11.69;100.00;96181.56;5051487;28;20064;-75
2022/08/10 04:06:54;;;;;;;10.10;4.90;;;;;;;11.71;100.00;96178.66;5054457;28;20037;-76
2022/08/10 04:09:19;;;;;;;7.22;4.60;;;;;;;11.74;100.00;96184.22;5053698;28;20044;-76
2022/08/10 04:11:45;;;;;;;5.43;4.20;;;;;;;11.72;100.00;96182.88;5050104;28;20526;-75
2022/08/10 04:14:10;;;;;;;6.07;4.25;;;;;;;11.70;100.00;96188.41;5052452;28;20469;-75
2022/08/10 04:16:36;;;;;;;6.47;4.60;;;;;;;11.68;100.00;96184.44;5052081;28;20052;-75
2022/08/10 04:19:03;;;;;;;9.23;4.18;;;;;;;11.72;100.00;96182.88;5050486;28;20201;-76
2022/08/10 04:21:33;;;;;;;8.60;4.60;;;;;;;11.63;100.00;96187.09;5057423;28;20049;-76
2022/08/10 04:24:01;;;;;;;6.10;4.47;;;;;;;11.66;100.00;96194.47;5058597;28;20043;-76
2022/08/10 04:26:28;;;;;;;4.95;4.10;;;;;;;11.65;100.00;96200.78;5052581;28;20487;-76
2022/08/10 04:28:54;;;;;;;7.47;4.90;;;;;;;11.64;100.00;96199.19;5050793;28;20048;-76
2022/08/10 04:31:21;;;;;;;8.25;4.68;;;;;;;11.68;100.00;96202.91;5038107;28;20041;-76
2022/08/10 04:33:50;;;;;;;5.50;4.13;;;;;;;11.76;100.00;96207.69;5047758;28;20041;-76
2022/08/10 04:36:21;;;;;;;6.32;4.13;;;;;;;11.75;100.00;96206.09;5056240;28;20388;-76
2022/08/10 04:38:48;;;;;;;6.80;4.57;;;;;;;11.74;100.00;96204.53;5056768;28;20391;-76
2022/08/10 04:41:15;;;;;;;5.82;4.30;;;;;;;11.76;100.00;96202.41;5054248;28;20040;-76
2022/08/10 04:43:41;;;;;;;7.32;4.40;;;;;;;11.71;100.00;96210.28;5062254;28;20045;-76
2022/08/10 04:46:06;;;;;;;6.15;4.70;;;;;;;11.80;100.00;96198.22;5051961;28;20102;-76
2022/08/10 04:48:32;;;;;;;7.13;4.75;;;;;;;11.86;100.00;96206.94;5055756;28;20558;-76
2022/08/10 04:50:57;;;;;;;6.35;4.40;;;;;;;11.88;100.00;96200.34;5049831;28;20041;-76
2022/08/10 04:53:22;;;;;;;8.65;4.97;;;;;;;11.93;100.00;96192.47;5051391;28;20709;-76
2022/08/10 04:55:48;;;;;;;6.75;4.90;;;;;;;12.02;100.00;96199.88;5051296;28;20037;-76
2022/08/10 04:58:13;;;;;;;7.53;4.65;;;;;;;12.03;100.00;96196.97;5049489;28;20045;-76
2022/08/10 05:00:39;;;;;;;6.50;4.72;;;;;;;12.01;100.00;96203.56;5049965;28;20037;-76
2022/08/10 05:03:05;;;;;;;7.78;5.50;;;;;;;11.99;100.00;96189.84;5049173;28;20091;-76
2022/08/10 05:05:30;;;;;;;7.22;4.72;;;;;;;12.04;100.00;96198.56;5051374;28;20047;-76
2022/08/10 05:07:55;;;;;;;10.13;5.70;;;;;;;12.12;100.00;96194.59;5046511;28;20041;-76
2022/08/10 05:10:21;;;;;;;7.35;5.53;;;;;;;12.21;100.00;96190.41;5049880;28;20591;-76
2022/08/10 05:12:47;;;;;;;7.80;5.55;;;;;;;12.29;100.00;96195.16;5051905;28;20041;-76
2022/08/10 05:15:13;;;;;;;7.50;5.75;;;;;;;12.36;100.00;96207.31;5053880;28;20041;-76
2022/08/10 05:17:41;;;;;;;11.25;5.85;;;;;;;12.43;100.00;96199.91;5057960;28;20039;-76
2022/08/10 05:20:09;;;;;;;8.00;5.90;;;;;;;12.51;100.00;96207.28;5058036;28;20044;-76
2022/08/10 05:22:42;;;;;;;10.02;6.13;;;;;;;12.65;100.00;96207.56;5047617;28;20041;-76
2022/08/10 05:25:15;;;;;;;8.57;6.47;;;;;;;12.75;100.00;96207.56;5053163;28;20494;-76
2022/08/10 05:27:41;;;;;;;10.02;6.05;;;;;;;12.91;100.00;96210.97;5050893;28;20450;-76
2022/08/10 05:30:09;;;;;;;8.85;6.32;;;;;;;12.92;100.00;96211.78;5049653;28;20391;-76
2022/08/10 05:32:36;;;;;;;14.40;6.20;;;;;;;13.11;100.00;96209.34;5046175;28;20045;-76
2022/08/10 05:35:02;;;;;;;10.68;6.25;;;;;;;13.23;100.00;96207.22;5052978;28;20045;-76
2022/08/10 05:37:29;;;;;;;12.27;6.65;;;;;;;13.30;100.00;96209.56;5056350;28;20049;-76
2022/08/10 05:39:56;;;;;;;9.93;6.53;;;;;;;13.47;100.00;96201.34;5049435;28;20041;-76
2022/08/10 05:42:22;;;;;;;19.63;6.63;;;;;;;13.60;100.00;96210.53;5057691;28;20040;-76
2022/08/10 05:44:48;;;;;;;10.90;6.47;;;;;;;13.81;100.00;96205.97;5054734;28;20115;-76
2022/08/10 05:47:15;;;;;;;11.98;7.25;;;;;;;13.85;100.00;96207.78;5052770;28;20551;-76
2022/08/10 05:49:41;;;;;;;11.00;6.97;;;;;;;14.11;100.00;96209.50;5049988;28;20045;-75
2022/08/10 05:52:06;;;;;;;13.70;6.60;;;;;;;14.26;100.00;96211.25;5061545;28;20166;-75
2022/08/10 05:54:32;;;;;;;10.93;6.57;;;;;;;14.37;100.00;96207.47;5050166;28;20116;-76
2022/08/10 05:56:57;;;;;;;12.02;6.82;;;;;;;14.32;100.00;96210.13;5054269;28;20032;-76
2022/08/10 05:59:30;;;;;;;10.27;7.05;;;;;;;14.42;100.00;96214.56;5060753;28;20578;-76
2022/08/10 06:01:59;;;;;;;11.98;6.82;;;;;;;14.59;100.00;96219.50;5050592;28;20051;-76
2022/08/10 06:04:29;;;;;;;17.67;8.00;;;;;;;14.67;100.00;96219.72;5057659;28;20119;-76
2022/08/10 06:06:57;;;;;;;12.55;7.05;;;;;;;14.57;100.00;96219.75;5051273;28;20056;-76
2022/08/10 06:09:24;;;;;;;13.43;7.68;;;;;;;14.77;100.00;96220.69;5051849;28;20036;-76
2022/08/10 06:11:52;;;;;;;14.68;7.80;;;;;;;14.92;100.00;96228.50;5051685;28;20045;-77
2022/08/10 06:17:04;;;;;;;18.80;7.10;;;;;;;15.02;99.04;96217.78;5055720;28;20041;-76
2022/08/10 06:19:30;;;;;;;12.73;7.22;;;;;;;15.10;100.00;96218.25;5033410;28;20128;-76
2022/08/10 06:21:57;;;;;;;13.77;8.02;;;;;;;15.18;98.67;96207.03;5064456;28;20511;-76
2022/08/10 06:24:26;;;;;;;12.50;7.45;;;;;;;15.26;99.81;96214.38;5056523;28;20048;-76
2022/08/10 06:26:51;;;;;;;12.32;7.18;;;;;;;15.36;97.78;96208.97;5053050;28;20082;-76
2022/08/10 06:29:19;;;;;;;12.48;6.78;;;;;;;15.54;97.79;96204.00;5044728;28;20044;-76
2022/08/10 06:31:49;;;;;;;12.70;7.70;;;;;;;15.56;98.85;96210.59;5050283;28;20033;-76
2022/08/10 06:34:18;;;;;;;20.23;7.82;;;;;;;15.79;94.89;96207.44;5052347;28;20040;-76
2022/08/10 06:36:45;;;;;;;10.13;7.13;;;;;;;15.94;96.35;96204.56;5048235;28;20740;-76
2022/08/10 06:39:11;;;;;;;12.77;7.03;;;;;;;16.15;93.59;96205.09;5050004;28;20525;-76
2022/08/10 06:41:43;;;;;;;10.57;6.90;;;;;;;16.11;93.01;96204.06;5033414;28;20037;-76
2022/08/10 06:44:14;;;;;;;11.95;6.90;;;;;;;16.25;93.89;96201.50;5047609;28;20075;-75
2022/08/10 06:46:46;;;;;;;18.30;7.57;;;;;;;16.31;91.80;96192.38;5048788;28;20453;-76
2022/08/10 06:49:15;;;;;;;13.02;7.20;;;;;;;16.64;90.36;96189.72;5049130;28;20554;-77
2022/08/10 06:51:43;;;;;;;12.55;6.93;;;;;;;16.66;89.71;96187.56;5049187;28;20037;-76
2022/08/10 06:54:11;;;;;;;14.57;7.25;;;;;;;16.64;88.75;96189.72;5031823;28;20072;-76
2022/08/10 06:56:42;;;;;;;12.70;6.72;;;;;;;16.71;88.76;96189.38;5048828;28;20036;-76
2022/08/10 06:59:15;;;;;;;12.48;6.82;;;;;;;16.80;89.62;96192.91;5044368;28;20048;-76
2022/08/10 07:01:44;;;;;;;11.50;6.28;;;;;;;16.71;89.32;96190.13;5047594;28;20041;-75
2022/08/10 07:04:14;;;;;;;10.10;6.20;;;;;;;16.94;88.25;96182.34;5052167;28;20048;-76
2022/08/10 07:06:43;;;;;;;9.35;5.90;;;;;;;17.22;85.13;96187.69;5044913;28;20038;-76
2022/08/10 07:09:11;;;;;;;15.48;6.45;;;;;;;17.23;86.21;96184.72;5048548;28;20071;-76
2022/08/10 07:11:40;;;;;;;8.77;6.03;;;;;;;17.41;82.43;96175.06;5046695;28;20041;-76
2022/08/10 07:14:07;;;;;;;9.25;5.93;;;;;;;17.57;81.06;96177.41;5047494;28;20083;-76
2022/08/10 07:16:35;;;;;;;8.77;5.43;;;;;;;17.74;78.95;96172.28;5047138;28;20120;-76
2022/08/10 07:19:01;;;;;;;9.65;5.45;;;;;;;17.67;81.13;96177.22;5047024;28;20044;-76
2022/08/10 07:21:29;;;;;;;31.05;7.65;;;;;;;17.96;77.04;96168.88;5053521;28;20064;-76
2022/08/10 07:23:56;;;;;;;12.40;5.90;;;;;;;18.06;76.14;96161.75;5051093;28;20064;-77
2022/08/10 07:26:23;;;;;;;15.55;5.55;;;;;;;18.14;75.68;96175.13;5044026;28;20087;-76
2022/08/10 07:28:52;;;;;;;11.52;5.40;;;;;;;18.20;75.41;96167.03;5048752;28;20446;-79
2022/08/10 07:31:22;;;;;;;10.50;5.03;;;;;;;18.22;73.48;96170.19;5057239;28;20041;-77
2022/08/10 07:33:51;;;;;;;11.38;5.18;;;;;;;18.17;74.78;96163.91;5048334;28;20045;-77
2022/08/10 07:36:20;;;;;;;9.98;5.10;;;;;;;18.51;71.64;96167.88;5049736;28;20048;-77
2022/08/10 07:38:48;;;;;;;7.90;5.10;;;;;;;18.27;73.80;96162.06;5051402;28;20049;-78
2022/08/10 07:41:15;;;;;;;12.70;5.72;;;;;;;18.31;74.71;96169.16;5054312;28;20048;-77
2022/08/10 07:43:43;;;;;;;10.65;4.90;;;;;;;18.57;70.87;96170.44;5056145;28;20120;-78
2022/08/10 07:46:13;;;;;;;7.45;4.30;;;;;;;18.99;68.87;96165.66;5051695;28;20087;-77
2022/08/10 07:48:42;;;;;;;13.40;5.05;;;;;;;18.95;67.90;96170.03;5050273;28;20173;-76
2022/08/10 07:51:09;;;;;;;14.77;4.80;;;;;;;18.90;68.54;96164.84;5050442;28;20040;-78
2022/08/10 07:53:41;;;;;;;27.13;5.50;;;;;;;19.02;67.10;96159.69;5049925;28;20087;-77
2022/08/10 07:56:09;;;;;;;7.05;4.70;;;;;;;19.13;68.83;96171.66;5043445;28;20495;-78
2022/08/10 07:58:48;;;;;;;11.90;4.63;;;;;;;19.05;66.57;96156.44;5040054;28;20053;-77
2022/08/10 08:01:14;;;;;;;6.90;4.45;;;;;;;19.18;69.34;96162.75;5060536;28;20059;-77
2022/08/10 08:03:43;;;;;;;7.55;4.50;;;;;;;19.20;65.51;96161.34;5055587;28;20090;-77
2022/08/10 08:06:10;;;;;;;6.50;4.13;;;;;;;19.52;65.36;96162.09;5047533;28;20041;-77
2022/08/10 08:08:37;;;;;;;7.40;4.22;;;;;;;19.43;63.27;96163.94;5045888;28;20045;-77
2022/08/10 08:11:04;;;;;;;6.78;4.47;;;;;;;19.63;62.48;96161.78;5049943;28;20072;-77
2022/08/10 08:13:31;;;;;;;10.75;4.57;;;;;;;19.62;61.65;96160.19;5055623;28;20044;-77
2022/08/10 08:15:57;;;;;;;9.05;4.10;;;;;;;19.72;63.31;96154.56;5044549;28;20041;-77
2022/08/10 08:18:23;;;;;;;12.50;4.88;;;;;;;19.68;62.55;96158.94;5042960;28;20041;-75
2022/08/10 08:20:49;;;;;;;9.90;4.20;;;;;;;19.81;62.02;96168.75;5051078;28;20033;-77
2022/08/10 08:23:16;;;;;;;13.30;4.45;;;;;;;19.95;61.47;96168.59;5052295;28;20414;-78
2022/08/10 08:25:44;;;;;;;7.53;4.22;;;;;;;19.84;62.18;96167.31;5053213;28;20036;-76
2022/08/10 08:28:11;;;;;;;14.40;4.10;;;;;;;19.88;61.78;96169.06;5053395;28;20033;-77
2022/08/10 08:30:39;;;;;;;12.93;3.72;;;;;;;19.79;61.50;96170.94;5046582;28;20041;-76
2022/08/10 08:33:05;;;;;;;6.20;3.50;;;;;;;19.82;62.05;96170.31;5056765;28;20044;-76
2022/08/10 08:35:32;;;;;;;6.28;3.85;;;;;;;19.93;60.52;96178.03;5053822;28;20049;-77
2022/08/10 08:37:59;;;;;;;8.30;3.90;;;;;;;20.07;59.62;96160.75;5056329;28;20037;-77
2022/08/10 08:40:32;;;;;;;9.98;3.60;;;;;;;20.13;60.02;96169.41;5046738;28;20041;-77
2022/08/10 08:43:31;;;;;;;8.95;3.42;;;;;;;20.08;57.53;96173.00;5051007;28;20064;-77
2022/08/10 08:46:33;;;;;;;11.20;3.53;;;;;;;20.29;59.05;96163.56;5055613;28;20044;-79
2022/08/10 08:49:35;;;;;;;18.98;3.60;;;;;;;20.38;58.52;96167.03;5045569;28;20465;-79
2022/08/10 08:52:12;;;;;;;7.82;3.58;;;;;;;20.41;56.96;96169.06;5056477;28;20146;-82
2022/08/10 08:54:45;;;;;;;4.40;3.20;;;;;;;20.58;57.03;96161.00;5054099;28;20037;-79
2022/08/10 08:57:23;;;;;;;9.15;3.78;;;;;;;20.64;56.76;96160.84;5057432;28;20489;-76
2022/08/10 08:59:57;;;;;;;12.02;3.50;;;;;;;20.63;55.37;96164.63;5055042;28;20124;-79
2022/08/10 09:02:42;;;;;;;7.90;3.40;;;;;;;20.76;54.66;96163.69;5052992;28;20087;-78
2022/08/10 09:05:27;;;;;;;8.88;3.30;;;;;;;20.81;54.26;96154.69;5051704;28;20105;-79
2022/08/10 09:08:25;;;;;;;8.27;3.42;;;;;;;20.79;54.63;96152.34;5064348;28;20037;-80
2022/08/10 09:10:59;;;;;;;4.10;2.80;;;;;;;21.07;55.31;96154.59;5037474;28;20485;-81
2022/08/10 09:13:47;;;;;;;6.60;3.17;;;;;;;21.10;53.25;96152.09;5051131;28;20066;-78
2022/08/10 09:16:28;;;;;;;3.83;2.70;;;;;;;21.31;53.02;96155.94;5053137;28;20038;-77
2022/08/10 09:19:23;;;;;;;5.70;3.15;;;;;;;21.37;52.18;96154.63;5050967;28;20068;-77
2022/08/10 09:22:04;;;;;;;;;;;;;;;21.42;52.96;96151.75;5038790;28;20069;-78
2022/08/10 09:24:45;;;;;;;5.30;3.10;;;;;;;21.41;53.15;96158.22;5052797;28;19921;-77
2022/08/10 09:27:22;;;;;;;6.70;2.95;;;;;;;21.52;53.39;96151.44;5052342;28;20052;-77
2022/08/10 09:29:59;;;;;;;5.65;2.92;;;;;;;21.66;52.75;96153.06;5054479;28;20047;-78
2022/08/10 09:32:48;;;;;;;10.02;3.10;;;;;;;21.71;53.23;96158.25;5058069;28;20037;-77
2022/08/10 09:35:20;;;;;;;6.72;2.90;;;;;;;22.01;51.71;96142.09;5042048;28;20055;-77
2022/08/10 09:38:01;;;;;;;5.40;2.78;;;;;;;22.11;51.02;96144.38;5044211;28;20089;-78
2022/08/10 09:40:53;;;;;;;6.25;2.70;;;;;;;22.31;48.87;96143.59;5057228;28;20044;-78
2022/08/10 09:43:49;;;;;;;5.03;2.70;;;;;;;22.20;49.26;96153.13;5033905;28;20446;-78
2022/08/10 09:46:32;;;;;;;4.18;2.60;;;;;;;22.20;48.39;96145.09;5058186;28;20037;-78
2022/08/10 09:49:09;;;;;;;3.88;2.58;;;;;;;22.20;48.44;96153.13;5052132;28;20045;-78
2022/08/10 09:51:45;;;;;;;4.28;2.60;;;;;;;22.31;47.87;96159.66;5046200;28;20437;-78
2022/08/10 09:54:34;;;;;;;4.82;2.55;;;;;;;22.43;47.04;96142.88;5059887;28;20111;-78
2022/08/10 09:57:18;;;;;;;3.15;2.30;;;;;;;22.61;46.85;96148.84;5052010;28;20037;-77
2022/08/10 10:00:02;;;;;;;4.13;2.35;;;;;;;22.51;46.31;96149.25;5041328;28;20115;-78
2022/08/10 10:03:06;;;;;;;3.80;2.47;;;;;;;22.65;48.16;96136.31;5053333;28;20056;-78
2022/08/10 10:05:56;;;;;;;7.15;2.60;;;;;;;22.72;46.78;96145.75;5050605;28;20041;-77
2022/08/10 10:08:57;;;;;;;3.25;2.17;;;;;;;22.88;46.21;96148.56;5053130;28;20075;-78
2022/08/10 10:11:50;;;;;;;8.40;2.60;;;;;;;22.79;43.04;96140.63;5041049;28;20037;-79
2022/08/10 10:18:01;;;;;;;2.75;2.00;;;;;;;23.44;42.18;96131.94;5058545;28;20047;-80
2022/08/10 10:20:29;;;;;;;3.85;2.25;;;;;;;23.70;42.71;96129.69;5049502;28;20045;-80
2022/08/10 10:23:28;;;;;;;4.45;1.92;;;;;;;24.03;44.46;96126.03;5055525;28;20415;-77
2022/08/10 10:26:23;;;;;;;7.35;2.35;;;;;;;24.30;42.99;96129.03;5047930;28;20111;-79
2022/08/10 10:29:26;;;;;;;9.60;2.72;;;;;;;24.14;44.13;96130.91;5024910;28;20057;-80
2022/08/10 10:32:17;;;;;;;6.22;2.55;;;;;;;24.07;44.57;96130.72;5064521;28;20448;-79
2022/08/10 10:35:13;;;;;;;11.18;2.50;;;;;;;24.48;44.22;96134.13;5061615;28;20057;-79
2022/08/10 10:37:40;;;;;;;5.93;2.83;;;;;;;24.16;44.18;96128.66;5056376;28;20052;-80
2022/08/10 10:40:07;;;;;;;9.82;2.40;;;;;;;24.07;44.31;96131.50;5048097;28;20044;-78
2022/08/10 10:42:54;;;;;;;5.65;2.30;;;;;;;24.82;43.12;96115.78;5045322;28;20052;-80
2022/08/10 10:45:30;;;;;;;4.38;2.50;;;;;;;25.11;43.24;96116.47;5058155;28;20049;-80
2022/08/10 10:48:15;;;;;;;6.72;2.40;;;;;;;25.45;43.65;96114.22;5053942;28;20411;-78
2022/08/10 10:51:06;;;;;;;4.85;2.40;;;;;;;25.16;43.14;96118.91;5057290;28;20052;-78
2022/08/10 10:53:58;;;;;;;7.05;2.80;;;;;;;25.06;43.33;96120.22;5056694;28;20070;-78
2022/08/10 10:56:26;;;;;;;6.32;2.60;;;;;;;26.03;43.03;96130.50;5053132;28;20041;-78
2022/08/10 10:59:01;;;;;;;6.45;2.70;;;;;;;25.68;42.52;96117.78;5052269;28;20045;-78
2022/08/10 11:01:39;;;;;;;5.55;2.13;;;;;;;25.70;43.35;96115.53;5062193;28;20093;-78
2022/08/10 11:04:10;;;;;;;5.95;2.47;;;;;;;26.27;41.83;96131.31;5061229;28;20036;-78
2022/08/10 11:06:41;;;;;;;5.28;2.50;;;;;;;26.05;39.93;96108.56;5051682;28;20041;-78
2022/08/10 11:09:19;;;;;;;8.45;2.60;;;;;;;25.58;40.39;96126.44;5041149;28;20491;-79
2022/08/10 11:11:51;;;;;;;5.70;2.30;;;;;;;25.65;40.96;96123.88;5050958;28;20445;-78
2022/08/10 11:14:23;;;;;;;6.00;2.50;;;;;;;25.64;41.15;96126.94;5042782;28;20034;-78
2022/08/10 11:17:10;;;;;;;12.32;2.50;;;;;;;25.55;41.14;96129.84;5056346;28;20037;-78
2022/08/10 11:19:44;;;;;;;5.95;2.42;;;;;;;25.29;41.10;96133.84;5038025;28;20057;-78
2022/08/10 11:22:19;;;;;;;4.95;2.30;;;;;;;25.37;40.77;96141.00;5049546;28;20045;-77
2022/08/10 11:24:58;;;;;;;7.68;2.42;;;;;;;26.68;38.60;96142.53;5050404;28;20120;-78
2022/08/10 11:27:32;;;;;;;5.90;2.22;;;;;;;26.96;37.76;96136.81;5048814;28;20041;-75
2022/08/10 11:30:04;;;;;;;5.22;2.40;;;;;;;26.56;38.73;96145.34;5044735;28;20044;-76
2022/08/10 11:33:00;;;;;;;4.43;2.40;;;;;;;26.50;38.79;96138.69;5048269;28;20115;-76
2022/08/10 11:35:34;;;;;;;3.75;1.90;;;;;;;26.85;37.67;96135.88;5051455;28;20106;-76
2022/08/10 11:38:18;;;;;;;4.50;2.30;;;;;;;27.49;37.96;96136.09;5047411;28;20045;-76
2022/08/10 11:41:08;;;;;;;5.85;2.30;;;;;;;27.76;36.04;96141.50;5041376;28;20044;-75
2022/08/10 11:43:41;;;;;;;8.63;2.40;;;;;;;27.92;36.34;96132.44;5048441;28;20037;-74
2022/08/10 11:46:32;;;;;;;5.40;2.20;;;;;;;27.38;36.03;96142.50;5060622;28;20143;-76
2022/08/10 11:49:21;;;;;;;4.38;2.13;;;;;;;27.16;36.78;96130.56;5052719;28;20041;-75
2022/08/10 11:51:52;;;;;;;10.23;2.38;;;;;;;26.87;37.38;96135.50;5053866;28;20044;-74
2022/08/10 11:54:27;;;;;;;3.40;2.25;;;;;;;26.75;36.72;96121.06;5059235;28;20064;-75
2022/08/10 11:56:55;;;;;;;7.57;2.50;;;;;;;27.08;36.91;96125.06;5054170;28;20044;-76